Time;durP1;ratioP1;P1;durP2;ratioP2;P2;SDS_P1;SDS_P2;PMS_P1;PMS_P2;Temp;Humidity;BMP_temperature;BMP_pressure;BME280_temperature;BME280_humidity;BME280_pressure;Samples;Min_cycle;Max_cycle;Signal;HPM_P1;HPM_P2
2022/12/15 00:40:09;;;;;;;47.70;32.63;;;6.00;1.00;;;;;;5032739;28;20032;-61
2022/12/15 00:42:35;;;;;;;48.57;35.13;;;6.10;1.00;;;;;;5029748;28;20021;-60
2022/12/15 00:45:01;;;;;;;48.20;31.80;;;6.10;1.00;;;;;;5031415;28;20016;-60
2022/12/15 00:47:27;;;;;;;51.17;35.13;;;6.10;1.00;;;;;;5030478;28;20072;-61
2022/12/15 01:20:17;;;;;;;52.07;36.53;;;6.20;1.00;;;;;;5041997;28;20040;-60
2022/12/15 01:23:03;;;;;;;53.33;35.10;;;6.20;1.00;;;;;;5028454;28;20030;-60
2022/12/15 01:25:29;;;;;;;52.63;37.10;;;6.20;1.00;;;;;;5030843;28;20045;-60
2022/12/15 01:27:54;;;;;;;52.13;36.80;;;6.20;1.00;;;;;;5032388;28;20028;-60
2022/12/15 01:30:23;;;;;;;54.03;37.60;;;6.20;1.00;;;;;;5032526;28;20025;-60
2022/12/15 01:32:58;;;;;;;51.17;35.83;;;6.20;1.00;;;;;;5032514;28;20360;-61
2022/12/15 01:35:23;;;;;;;52.00;36.20;;;6.00;1.00;;;;;;5032349;28;20029;-60
2022/12/15 01:37:52;;;;;;;50.60;36.23;;;6.10;1.00;;;;;;5018793;28;20034;-61
2022/12/15 01:43:10;;;;;;;54.23;37.00;;;6.20;1.00;;;;;;5032102;28;20040;-60
2022/12/15 01:45:59;;;;;;;49.60;35.20;;;6.10;1.00;;;;;;5032040;28;20037;-60
2022/12/15 01:48:30;;;;;;;51.63;35.53;;;6.20;1.00;;;;;;5030669;28;20026;-60
2022/12/15 01:51:06;;;;;;;53.77;37.00;;;6.20;1.00;;;;;;5030677;28;20033;-60
2022/12/15 01:53:36;;;;;;;53.00;35.70;;;6.10;1.00;;;;;;5034174;28;20029;-61
2022/12/15 01:59:34;;;;;;;54.20;36.43;;;6.10;1.00;;;;;;5017860;28;20031;-61
2022/12/15 02:02:00;;;;;;;49.17;35.17;;;6.20;1.00;;;;;;5015824;28;20025;-61
2022/12/15 02:04:26;;;;;;;49.07;35.47;;;6.20;1.00;;;;;;5031671;28;20017;-61
2022/12/15 02:06:52;;;;;;;51.93;36.17;;;6.10;1.00;;;;;;5030466;28;20053;-60
2022/12/15 02:09:20;;;;;;;49.73;36.23;;;6.10;1.00;;;;;;5030454;28;20378;-61
2022/12/15 02:12:03;;;;;;;51.40;36.60;;;6.10;1.00;;;;;;5030637;28;20061;-60
2022/12/15 02:15:01;;;;;;;54.30;38.50;;;6.10;1.00;;;;;;5018340;28;20445;-61
2022/12/15 02:17:33;;;;;;;54.43;37.13;;;6.10;1.00;;;;;;5031860;28;20137;-61
2022/12/15 02:20:36;;;;;;;57.63;37.90;;;6.20;1.00;;;;;;5031593;28;20036;-61
2022/12/15 02:23:10;;;;;;;54.37;39.53;;;6.10;1.00;;;;;;5012967;28;20104;-61
2022/12/15 02:25:55;;;;;;;54.58;38.55;;;6.20;1.00;;;;;;5031796;28;20064;-61
2022/12/15 02:28:29;;;;;;;54.13;38.27;;;6.30;1.00;;;;;;5031529;28;20356;-61
2022/12/15 02:33:54;;;;;;;51.03;36.73;;;6.40;1.00;;;;;;5020399;28;20044;-61
2022/12/15 02:36:31;;;;;;;52.37;37.93;;;6.40;1.00;;;;;;5022976;28;20490;-61
2022/12/15 02:38:57;;;;;;;51.07;37.57;;;6.50;1.00;;;;;;5031704;28;20053;-61
2022/12/15 02:41:39;;;;;;;51.00;35.33;;;6.50;1.00;;;;;;5031533;28;20060;-61
2022/12/15 02:44:08;;;;;;;53.63;36.27;;;6.60;1.00;;;;;;5031223;28;20067;-61
2022/12/15 02:47:15;;;;;;;53.57;34.93;;;6.60;1.00;;;;;;5029968;28;20041;-61
2022/12/15 02:49:48;;;;;;;50.93;34.77;;;6.60;1.00;;;;;;5012874;28;20037;-60
2022/12/15 02:52:39;;;;;;;47.50;34.20;;;6.60;1.00;;;;;;5012913;28;20096;-60
2022/12/15 02:55:20;;;;;;;49.37;33.40;;;6.60;1.00;;;;;;5023786;28;20063;-60
2022/12/15 02:58:27;;;;;;;51.07;33.97;;;6.70;1.00;;;;;;5033125;28;20112;-60
2022/12/15 03:01:10;;;;;;;50.77;34.50;;;6.70;1.00;;;;;;5013116;28;20041;-61
2022/12/15 03:03:37;;;;;;;49.53;34.63;;;6.80;1.00;;;;;;5033284;28;20033;-60
2022/12/15 03:06:04;;;;;;;48.33;34.33;;;6.70;1.00;;;;;;5034869;28;20475;-60
2022/12/15 03:08:29;;;;;;;50.23;34.90;;;6.70;1.00;;;;;;5034432;28;20061;-60
2022/12/15 03:10:56;;;;;;;47.77;34.30;;;6.70;1.00;;;;;;5034556;28;20017;-60
2022/12/15 03:13:23;;;;;;;47.93;34.60;;;6.80;1.00;;;;;;5034763;28;20421;-60
2022/12/15 03:15:49;;;;;;;47.00;34.10;;;6.70;1.00;;;;;;5032013;28;20391;-61
2022/12/15 03:18:15;;;;;;;47.07;33.47;;;6.80;1.00;;;;;;5034473;28;20036;-61
2022/12/15 03:20:43;;;;;;;48.33;35.10;;;6.80;1.00;;;;;;5032403;28;20021;-61
2022/12/15 03:23:09;;;;;;;52.63;35.13;;;6.80;1.00;;;;;;5034617;28;20056;-60
2022/12/15 03:25:35;;;;;;;48.73;34.50;;;6.80;1.00;;;;;;5033139;28;20501;-61
2022/12/15 03:28:00;;;;;;;47.90;34.93;;;6.80;1.00;;;;;;5034479;28;20036;-60
2022/12/15 03:30:26;;;;;;;45.37;33.63;;;6.80;1.00;;;;;;5034322;28;20028;-60
2022/12/15 03:32:51;;;;;;;47.63;34.10;;;6.80;1.00;;;;;;5034183;28;20084;-61
2022/12/15 03:35:17;;;;;;;49.03;34.30;;;7.00;1.00;;;;;;5034380;28;20025;-60
2022/12/15 03:37:43;;;;;;;50.10;34.20;;;6.90;1.00;;;;;;5034270;28;20049;-61
2022/12/15 03:40:10;;;;;;;49.60;34.00;;;6.90;1.00;;;;;;5034159;28;20060;-60
2022/12/15 03:42:47;;;;;;;46.03;31.83;;;6.80;1.00;;;;;;5034507;28;20033;-61
2022/12/15 03:45:18;;;;;;;45.37;32.07;;;6.90;1.00;;;;;;5020837;28;20140;-60
2022/12/15 03:47:44;;;;;;;45.10;32.27;;;7.00;1.00;;;;;;5033886;28;20071;-61
2022/12/15 03:50:12;;;;;;;46.97;33.07;;;6.90;1.00;;;;;;5032436;28;20010;-60
2022/12/15 03:52:37;;;;;;;41.33;31.67;;;6.90;1.00;;;;;;5034054;28;20021;-61
2022/12/15 03:55:04;;;;;;;42.50;32.73;;;7.00;1.00;;;;;;5033907;28;20368;-60
2022/12/15 03:57:30;;;;;;;46.30;33.00;;;7.00;1.00;;;;;;5033990;28;20018;-61
2022/12/15 03:59:56;;;;;;;41.73;31.10;;;7.00;1.00;;;;;;5033228;28;20025;-61
2022/12/15 04:02:21;;;;;;;42.77;30.63;;;7.00;1.00;;;;;;5032250;28;20415;-61
2022/12/15 04:04:47;;;;;;;43.23;30.03;;;7.10;1.00;;;;;;5032559;28;20154;-61
2022/12/15 04:07:13;;;;;;;41.20;30.17;;;7.10;1.00;;;;;;5030883;28;20045;-61
2022/12/15 04:09:39;;;;;;;41.03;29.63;;;7.10;1.00;;;;;;5033975;28;20056;-61
2022/12/15 04:12:05;;;;;;;41.27;29.90;;;7.00;1.00;;;;;;5033170;28;20029;-61
2022/12/15 04:14:31;;;;;;;41.97;30.53;;;7.00;1.00;;;;;;5034173;28;20026;-61
2022/12/15 04:16:57;;;;;;;34.13;26.10;;;7.20;1.00;;;;;;5033839;28;20475;-61
2022/12/15 04:22:06;;;;;;;36.13;28.03;;;7.20;1.00;;;;;;5033894;28;20052;-61
2022/12/15 05:33:05;;;;;;;34.03;27.00;;;7.40;1.00;;;;;;5032349;28;20056;-61
2022/12/15 05:35:30;;;;;;;40.17;28.77;;;7.50;1.00;;;;;;5025544;28;20087;-61
2022/12/15 05:37:56;;;;;;;38.77;28.50;;;7.50;1.00;;;;;;5025627;28;20108;-61
2022/12/15 05:40:21;;;;;;;36.43;27.93;;;7.50;1.00;;;;;;5032192;28;20123;-61
2022/12/15 05:42:47;;;;;;;35.67;26.77;;;7.50;1.00;;;;;;5032202;28;20033;-61
2022/12/15 05:45:12;;;;;;;39.50;28.27;;;7.30;1.00;;;;;;5025675;28;20061;-61
2022/12/15 05:47:38;;;;;;;40.13;28.33;;;7.40;1.00;;;;;;5030348;28;20084;-61
2022/12/15 05:50:04;;;;;;;33.27;26.77;;;7.50;1.00;;;;;;5031836;28;20028;-61
2022/12/15 05:52:30;;;;;;;31.07;25.67;;;7.40;1.00;;;;;;5031973;28;20053;-61
2022/12/15 05:54:55;;;;;;;39.60;26.93;;;7.30;1.00;;;;;;5031765;28;20081;-61
2022/12/15 05:57:21;;;;;;;34.80;25.43;;;7.40;1.00;;;;;;5031786;28;20017;-61
2022/12/15 05:59:47;;;;;;;37.33;26.43;;;7.50;1.00;;;;;;5031581;28;20055;-61
2022/12/15 06:02:12;;;;;;;38.13;27.17;;;7.40;1.00;;;;;;5031657;28;20021;-61
2022/12/15 06:04:38;;;;;;;41.70;28.37;;;7.60;1.00;;;;;;5031941;28;20032;-61
2022/12/15 06:07:03;;;;;;;38.97;28.20;;;7.60;1.00;;;;;;5031565;28;20054;-61
2022/12/15 06:09:33;;;;;;;36.67;26.03;;;7.60;1.00;;;;;;5030373;28;20383;-61
2022/12/15 06:11:59;;;;;;;39.47;27.60;;;7.60;1.00;;;;;;5031872;28;20108;-61
2022/12/15 06:14:25;;;;;;;36.70;26.33;;;7.60;1.00;;;;;;5031684;28;20105;-61
2022/12/15 06:16:50;;;;;;;38.43;25.23;;;7.60;1.00;;;;;;5031829;28;20045;-61
2022/12/15 06:19:16;;;;;;;35.13;26.90;;;7.70;1.00;;;;;;5031706;28;20025;-61
2022/12/15 06:21:41;;;;;;;33.73;26.90;;;7.70;1.00;;;;;;5029595;28;20550;-61
2022/12/15 06:24:07;;;;;;;39.70;27.77;;;7.70;1.00;;;;;;5029800;28;20079;-61
2022/12/15 06:26:35;;;;;;;46.60;31.43;;;7.70;1.00;;;;;;5035497;28;20403;-61
2022/12/15 06:29:03;;;;;;;45.87;31.47;;;7.70;1.00;;;;;;5035638;28;20118;-61
2022/12/15 06:31:30;;;;;;;48.03;33.90;;;7.70;1.00;;;;;;5035389;28;20034;-61
2022/12/15 06:41:00;;;;;;;47.77;33.37;;;7.70;1.00;;;;;;5021622;28;20092;-61
2022/12/15 06:43:27;;;;;;;47.60;34.53;;;7.60;1.00;;;;;;5029040;28;20092;-61
2022/12/15 06:45:53;;;;;;;48.63;34.33;;;7.50;1.00;;;;;;5035310;28;20114;-61
2022/12/15 06:48:20;;;;;;;46.30;34.93;;;7.50;1.00;;;;;;5035369;28;20036;-61
2022/12/15 06:50:46;;;;;;;49.07;34.50;;;7.50;1.00;;;;;;5034819;28;20026;-61
2022/12/15 06:53:14;;;;;;;49.13;34.90;;;7.50;1.00;;;;;;5035095;28;20025;-61
2022/12/15 06:55:40;;;;;;;53.00;35.93;;;7.50;1.00;;;;;;5026357;28;20037;-61
2022/12/15 06:58:06;;;;;;;43.97;33.40;;;7.50;1.00;;;;;;5029116;28;20413;-61
2022/12/15 07:00:35;;;;;;;47.83;34.60;;;7.60;1.00;;;;;;5022489;28;20052;-61
2022/12/15 07:03:02;;;;;;;47.80;34.93;;;7.60;1.00;;;;;;5034917;28;20025;-61
2022/12/15 07:05:28;;;;;;;49.13;36.10;;;7.60;1.00;;;;;;5032963;28;20045;-61
2022/12/15 07:07:54;;;;;;;48.80;36.47;;;7.60;1.00;;;;;;5029125;28;20399;-61
2022/12/15 07:10:20;;;;;;;47.97;34.77;;;7.60;1.00;;;;;;5028536;28;20030;-62
2022/12/15 07:12:45;;;;;;;49.53;34.37;;;7.60;1.00;;;;;;5035098;28;20033;-61
2022/12/15 07:15:11;;;;;;;52.60;34.97;;;7.60;1.00;;;;;;5034592;28;20443;-61
2022/12/15 07:17:37;;;;;;;50.70;35.47;;;7.70;1.00;;;;;;5033957;28;20048;-61
2022/12/15 07:20:04;;;;;;;51.50;35.27;;;7.60;1.00;;;;;;5033957;28;20030;-61
2022/12/15 07:22:30;;;;;;;48.73;35.07;;;7.50;1.00;;;;;;5027029;28;20464;-62
2022/12/15 07:24:56;;;;;;;46.23;34.57;;;7.60;1.00;;;;;;5033582;28;20025;-61
2022/12/15 07:27:21;;;;;;;50.50;35.17;;;7.70;1.00;;;;;;5034644;28;20038;-61
2022/12/15 07:29:47;;;;;;;48.33;35.53;;;7.70;1.00;;;;;;5034697;28;20038;-61
2022/12/15 07:32:19;;;;;;;51.97;37.83;;;7.70;1.00;;;;;;5033116;28;20121;-62
2022/12/15 07:34:45;;;;;;;48.63;35.13;;;7.60;1.00;;;;;;5032404;28;20494;-62
2022/12/15 07:37:15;;;;;;;52.63;36.63;;;7.40;1.00;;;;;;5034867;28;20022;-62
2022/12/15 07:39:40;;;;;;;51.63;37.93;;;7.30;1.00;;;;;;5034248;28;20106;-61
2022/12/15 07:42:06;;;;;;;55.67;38.40;;;7.40;1.00;;;;;;5033051;28;20104;-62
2022/12/15 07:44:31;;;;;;;51.17;36.20;;;7.60;1.00;;;;;;5034533;28;20387;-62
2022/12/15 07:47:00;;;;;;;53.07;37.70;;;7.60;1.00;;;;;;5034017;28;20475;-62
2022/12/15 07:49:26;;;;;;;50.50;35.53;;;7.60;1.00;;;;;;5026944;28;20460;-62
2022/12/15 07:51:51;;;;;;;50.00;35.43;;;7.60;1.00;;;;;;5020970;28;20026;-60
2022/12/15 07:54:17;;;;;;;50.57;36.77;;;7.60;1.00;;;;;;5034094;28;20030;-60
2022/12/15 07:56:43;;;;;;;49.10;34.60;;;7.70;1.00;;;;;;5034223;28;20068;-61
2022/12/15 07:59:08;;;;;;;48.37;34.47;;;7.70;1.00;;;;;;5032338;28;20444;-62
2022/12/15 08:01:34;;;;;;;48.53;34.50;;;7.70;1.00;;;;;;5034187;28;20092;-62
2022/12/15 08:04:00;;;;;;;43.97;34.53;;;7.80;1.00;;;;;;5033585;28;20025;-62
2022/12/15 08:06:26;;;;;;;47.47;33.83;;;7.70;1.00;;;;;;5026438;28;20084;-61
2022/12/15 08:08:52;;;;;;;46.97;35.07;;;7.80;1.00;;;;;;5030763;28;20048;-62
2022/12/15 08:11:20;;;;;;;54.97;35.67;;;7.80;1.00;;;;;;5032372;28;20041;-62
2022/12/15 08:13:46;;;;;;;48.13;37.10;;;7.80;1.00;;;;;;5034163;28;20029;-61
2022/12/15 08:16:12;;;;;;;49.97;37.33;;;7.80;1.00;;;;;;5034056;28;20103;-61
2022/12/15 08:18:38;;;;;;;47.87;35.20;;;7.90;1.00;;;;;;5033416;28;20037;-62
2022/12/15 08:21:10;;;;;;;51.73;35.53;;;7.70;1.00;;;;;;5033564;28;20049;-62
2022/12/15 08:24:32;;;;;;;52.87;37.97;;;8.00;1.00;;;;;;5033801;28;20017;-62
2022/12/15 08:26:57;;;;;;;51.37;36.33;;;7.90;1.00;;;;;;5028319;28;20069;-62
2022/12/15 08:29:23;;;;;;;52.33;37.30;;;7.90;1.00;;;;;;5029468;28;20431;-62
2022/12/15 08:31:49;;;;;;;52.80;37.13;;;7.90;1.00;;;;;;5033478;28;20434;-62
2022/12/15 08:34:14;;;;;;;57.00;37.90;;;7.90;1.00;;;;;;5033698;28;20057;-62
2022/12/15 08:36:40;;;;;;;52.80;36.30;;;8.00;1.00;;;;;;5033988;28;20140;-63
2022/12/15 08:39:06;;;;;;;52.07;37.97;;;8.00;1.00;;;;;;5033437;28;20068;-63
2022/12/15 08:41:32;;;;;;;52.60;36.57;;;8.00;1.00;;;;;;5033152;28;20487;-63
2022/12/15 08:44:00;;;;;;;51.80;38.40;;;8.00;1.00;;;;;;5033599;28;20036;-63
2022/12/15 08:46:29;;;;;;;51.40;36.77;;;8.10;1.00;;;;;;5032274;28;20083;-63
2022/12/15 08:48:56;;;;;;;54.63;38.73;;;8.10;1.00;;;;;;5033685;28;20025;-63
2022/12/15 08:51:27;;;;;;;43.87;34.53;;;8.00;1.00;;;;;;5030700;28;20064;-65
2022/12/15 08:53:58;;;;;;;54.73;39.43;;;7.80;1.00;;;;;;5033067;28;20025;-65
2022/12/15 08:56:25;;;;;;;54.00;37.73;;;7.70;1.00;;;;;;5033012;28;20133;-64
2022/12/15 08:58:56;;;;;;;55.50;39.33;;;7.60;1.00;;;;;;5034601;28;20067;-63
2022/12/15 09:01:23;;;;;;;59.07;39.50;;;7.90;1.00;;;;;;5031949;28;20040;-64
2022/12/15 09:03:53;;;;;;;53.70;37.70;;;8.00;1.00;;;;;;5031536;28;20041;-65
2022/12/15 09:06:21;;;;;;;56.03;40.07;;;8.20;1.00;;;;;;5032541;28;20044;-64
2022/12/15 09:08:47;;;;;;;53.67;38.83;;;8.10;1.00;;;;;;5031574;28;20045;-63
2022/12/15 09:11:13;;;;;;;51.80;36.10;;;8.20;1.00;;;;;;5027040;28;20021;-63
2022/12/15 09:13:38;;;;;;;50.77;34.47;;;8.30;1.00;;;;;;5038020;28;20107;-64
2022/12/15 09:16:07;;;;;;;44.97;33.03;;;8.30;1.00;;;;;;5039095;28;20052;-63
2022/12/15 09:18:33;;;;;;;42.17;30.70;;;8.40;1.00;;;;;;5036025;28;20033;-64
2022/12/15 09:21:04;;;;;;;46.50;33.23;;;8.40;1.00;;;;;;5035081;28;20041;-63
2022/12/15 09:23:30;;;;;;;43.40;32.63;;;8.50;1.00;;;;;;5017693;28;20397;-63
2022/12/15 09:26:04;;;;;;;42.20;31.00;;;8.50;1.00;;;;;;5026841;28;20034;-63
2022/12/15 09:28:30;;;;;;;44.37;32.57;;;8.50;1.00;;;;;;5032648;28;20103;-64
2022/12/15 09:31:12;;;;;;;47.37;32.80;;;8.50;1.00;;;;;;5032271;28;20548;-63
2022/12/15 09:33:39;;;;;;;43.60;28.80;;;8.50;1.00;;;;;;5032233;28;20029;-63
2022/12/15 09:36:06;;;;;;;39.77;27.10;;;8.50;1.00;;;;;;5031755;28;20071;-63
2022/12/15 09:38:37;;;;;;;35.57;25.80;;;8.40;1.00;;;;;;5032338;28;20021;-63
2022/12/15 09:41:08;;;;;;;29.87;23.90;;;8.40;1.00;;;;;;5032253;28;20379;-63
2022/12/15 09:43:47;;;;;;;33.63;25.27;;;8.40;1.00;;;;;;5023335;28;20033;-63
2022/12/15 09:46:32;;;;;;;29.93;23.83;;;8.40;1.00;;;;;;5030435;28;20038;-63
2022/12/15 09:49:03;;;;;;;30.17;24.13;;;8.30;1.00;;;;;;5032532;28;20390;-64
2022/12/15 09:51:38;;;;;;;31.07;23.87;;;8.30;1.00;;;;;;5025399;28;20021;-61
2022/12/15 09:54:04;;;;;;;31.95;21.30;;;8.40;1.00;;;;;;5032198;28;20112;-61
2022/12/15 09:56:44;;;;;;;33.80;22.40;;;8.30;1.00;;;;;;5031615;28;20055;-61
2022/12/15 09:59:35;;;;;;;31.53;22.63;;;8.20;1.00;;;;;;5031981;28;20022;-61
2022/12/15 10:02:38;;;;;;;40.57;29.07;;;8.20;1.00;;;;;;5023087;28;20030;-61
2022/12/15 10:05:50;;;;;;;26.27;20.77;;;8.30;1.00;;;;;;5031938;28;20343;-61
2022/12/15 10:08:19;;;;;;;33.97;23.37;;;8.30;1.00;;;;;;5030418;28;20076;-61
2022/12/15 10:11:16;;;;;;;33.03;22.40;;;8.30;1.00;;;;;;5031606;28;20064;-61
2022/12/15 10:13:56;;;;;;;29.77;22.23;;;8.30;1.00;;;;;;5036774;28;20029;-61
2022/12/15 10:16:51;;;;;;;36.63;24.63;;;8.40;1.00;;;;;;5038452;28;20123;-62
2022/12/15 10:19:25;;;;;;;31.50;22.55;;;8.40;1.00;;;;;;5021365;28;20398;-61
2022/12/15 10:21:51;;;;;;;33.88;22.83;;;8.40;1.00;;;;;;5031512;28;20029;-61
2022/12/15 10:24:21;;;;;;;29.80;22.80;;;8.40;1.00;;;;;;5026208;28;20041;-61
2022/12/15 10:27:31;;;;;;;31.23;22.73;;;8.50;1.00;;;;;;5026688;28;20045;-61
2022/12/15 10:30:01;;;;;;;31.77;21.77;;;8.50;1.00;;;;;;5031487;28;20034;-61
2022/12/15 10:32:47;;;;;;;32.77;23.00;;;8.50;1.00;;;;;;5031311;28;20519;-61
2022/12/15 10:35:16;;;;;;;34.87;23.47;;;8.40;1.00;;;;;;5030114;28;20029;-61
2022/12/15 10:37:42;;;;;;;36.73;24.67;;;8.40;1.00;;;;;;5017996;28;20029;-61
2022/12/15 10:40:13;;;;;;;31.43;24.23;;;8.30;1.00;;;;;;5031622;28;20511;-61
2022/12/15 10:42:48;;;;;;;24.37;18.20;;;8.40;1.00;;;;;;5028976;28;20480;-61
2022/12/15 10:45:37;;;;;;;28.40;19.63;;;8.40;1.00;;;;;;5031623;28;20057;-62
2022/12/15 10:48:05;;;;;;;31.10;21.10;;;8.50;1.00;;;;;;5018971;28;20029;-61
2022/12/15 10:50:32;;;;;;;32.70;21.43;;;8.30;1.00;;;;;;5030279;28;20033;-62
2022/12/15 10:52:59;;;;;;;30.83;22.53;;;8.40;1.00;;;;;;5030022;28;20124;-62
2022/12/15 10:55:30;;;;;;;28.43;19.10;;;8.50;1.00;;;;;;5031562;28;20029;-62
2022/12/15 10:57:58;;;;;;;34.17;23.90;;;8.40;1.00;;;;;;5029922;28;20034;-62
2022/12/15 11:00:30;;;;;;;28.07;21.30;;;8.30;1.00;;;;;;5030126;28;20026;-61
2022/12/15 11:02:57;;;;;;;30.50;22.27;;;8.40;1.00;;;;;;5018171;28;20530;-61
2022/12/15 11:05:23;;;;;;;30.53;21.40;;;8.30;1.00;;;;;;5029736;28;20424;-61
2022/12/15 11:07:52;;;;;;;35.43;23.90;;;8.40;1.00;;;;;;5029761;28;20054;-62
2022/12/15 11:13:21;;;;;;;31.60;23.90;;;8.40;1.00;;;;;;5022893;28;20049;-61
2022/12/15 11:15:50;;;;;;;34.60;24.73;;;8.40;1.00;;;;;;5035298;28;20028;-61
2022/12/15 11:18:28;;;;;;;30.13;21.30;;;8.40;1.00;;;;;;5033714;28;20025;-61
2022/12/15 11:21:07;;;;;;;33.33;24.10;;;8.40;1.00;;;;;;5034675;28;20049;-62
2022/12/15 11:23:45;;;;;;;33.97;23.67;;;8.50;1.00;;;;;;5034419;28;20418;-61
2022/12/15 11:26:19;;;;;;;31.53;21.80;;;8.50;1.00;;;;;;5035078;28;20403;-62
2022/12/15 11:29:05;;;;;;;31.30;21.48;;;8.60;1.00;;;;;;5033417;28;20120;-62
2022/12/15 11:31:40;;;;;;;24.97;19.47;;;8.60;1.00;;;;;;5034529;28;20033;-62
2022/12/15 11:34:16;;;;;;;32.00;23.47;;;8.60;1.00;;;;;;5025663;28;20327;-61
2022/12/15 11:37:12;;;;;;;29.80;22.53;;;8.40;1.00;;;;;;5033292;28;20057;-61
2022/12/15 11:39:50;;;;;;;33.87;25.37;;;8.60;1.00;;;;;;5022586;28;20063;-62
2022/12/15 11:42:19;;;;;;;32.60;22.73;;;8.60;1.00;;;;;;5034457;28;20102;-61
2022/12/15 11:45:06;;;;;;;31.67;22.50;;;8.50;1.00;;;;;;5026646;28;20038;-62
2022/12/15 11:47:41;;;;;;;38.03;26.90;;;8.30;1.00;;;;;;5026935;28;20444;-61
2022/12/15 11:50:30;;;;;;;34.90;25.80;;;8.40;1.00;;;;;;5026891;28;20018;-61
2022/12/15 11:56:23;;;;;;;31.10;22.93;;;8.50;1.00;;;;;;5030250;28;20044;-60
2022/12/15 11:59:07;;;;;;;27.23;18.93;;;8.20;1.00;;;;;;5045456;28;20040;-61
2022/12/15 12:02:01;;;;;;;24.30;18.88;;;8.10;1.00;;;;;;5034164;28;20026;-61
2022/12/15 12:04:59;;;;;;;24.23;19.33;;;8.20;1.00;;;;;;5032661;28;20181;-61
2022/12/15 12:07:47;;;;;;;25.87;20.03;;;8.30;1.00;;;;;;5034096;28;20054;-61
2022/12/15 12:10:51;;;;;;;28.67;20.27;;;8.20;1.00;;;;;;5027207;28;20048;-61
2022/12/15 12:13:29;;;;;;;28.10;21.07;;;8.40;1.00;;;;;;5038145;28;20029;-61
2022/12/15 12:16:21;;;;;;;26.93;19.57;;;8.40;1.00;;;;;;5029252;28;20033;-62
2022/12/15 12:19:09;;;;;;;28.40;19.93;;;8.40;1.00;;;;;;5035716;28;20045;-61
2022/12/15 12:21:44;;;;;;;24.43;20.20;;;8.20;1.00;;;;;;5032431;28;20091;-61
2022/12/15 12:24:18;;;;;;;24.13;19.17;;;8.20;1.00;;;;;;5035536;28;20036;-61
2022/12/15 12:26:45;;;;;;;26.10;19.53;;;8.30;1.00;;;;;;5028040;28;20033;-61
2022/12/15 12:29:32;;;;;;;25.30;18.47;;;8.30;1.00;;;;;;5040419;28;20036;-62
2022/12/15 12:32:18;;;;;;;28.03;18.57;;;8.20;1.00;;;;;;5032335;28;20037;-61
2022/12/15 12:35:08;;;;;;;28.70;21.07;;;8.30;1.00;;;;;;5032065;28;20033;-61
2022/12/15 12:38:14;;;;;;;29.53;19.10;;;8.30;1.00;;;;;;5032763;28;20124;-61
2022/12/15 12:40:40;;;;;;;24.60;19.20;;;8.30;1.00;;;;;;5031540;28;20033;-61
2022/12/15 12:43:08;;;;;;;21.87;17.83;;;8.40;1.00;;;;;;5032424;28;20033;-61
2022/12/15 12:45:56;;;;;;;27.33;18.43;;;8.20;1.00;;;;;;5033736;28;20033;-63
2022/12/15 12:48:42;;;;;;;26.93;19.60;;;8.20;1.00;;;;;;5036373;28;20026;-61
2022/12/15 12:51:35;;;;;;;22.47;18.20;;;7.90;1.00;;;;;;5032269;28;20364;-62
2022/12/15 12:54:01;;;;;;;27.03;20.63;;;8.10;1.00;;;;;;5029713;28;20092;-61
2022/12/15 12:56:42;;;;;;;25.00;18.50;;;8.00;1.00;;;;;;5033396;28;20117;-61
2022/12/15 12:59:30;;;;;;;29.10;19.80;;;8.20;1.00;;;;;;5033204;28;20415;-62
2022/12/15 13:02:14;;;;;;;24.23;17.47;;;8.20;1.00;;;;;;5033144;28;20495;-61
2022/12/15 13:04:43;;;;;;;24.43;17.87;;;8.20;1.00;;;;;;5032891;28;20041;-62
2022/12/15 13:07:36;;;;;;;26.80;20.30;;;8.10;1.00;;;;;;5032802;28;20103;-62
2022/12/15 13:10:08;;;;;;;34.93;21.73;;;8.20;1.00;;;;;;5019673;28;20490;-62
2022/12/15 13:12:52;;;;;;;30.73;21.40;;;8.00;1.00;;;;;;5032040;28;20110;-62
2022/12/15 13:15:42;;;;;;;26.30;21.10;;;7.90;1.00;;;;;;5031941;28;20033;-62
2022/12/15 13:18:26;;;;;;;26.83;20.07;;;7.80;1.00;;;;;;5034244;28;20033;-62
2022/12/15 13:20:56;;;;;;;31.43;23.83;;;7.60;1.00;;;;;;5031417;28;20039;-62
2022/12/15 13:23:25;;;;;;;35.10;23.27;;;7.60;1.00;;;;;;5032538;28;20022;-62
2022/12/15 13:25:56;;;;;;;35.07;23.33;;;7.60;1.00;;;;;;5031857;28;20053;-62
2022/12/15 13:28:46;;;;;;;29.13;22.83;;;7.60;1.00;;;;;;5042088;28;20107;-62
2022/12/15 13:31:18;;;;;;;30.37;23.20;;;7.60;1.00;;;;;;5032073;28;20036;-62
2022/12/15 13:33:49;;;;;;;29.73;23.00;;;7.60;1.00;;;;;;5032241;28;20029;-62
2022/12/15 13:36:40;;;;;;;29.90;23.67;;;7.60;1.00;;;;;;5034505;28;20028;-62
2022/12/15 13:39:11;;;;;;;33.57;23.30;;;7.60;1.00;;;;;;5039091;28;20037;-62
2022/12/15 13:41:45;;;;;;;34.07;24.77;;;7.70;1.00;;;;;;5018914;28;20041;-62
2022/12/15 13:44:26;;;;;;;34.33;24.13;;;7.50;1.00;;;;;;5032750;28;20106;-66
2022/12/15 13:46:54;;;;;;;34.97;24.87;;;7.10;1.00;;;;;;5026188;28;20038;-66
2022/12/15 13:49:33;;;;;;;37.13;25.97;;;7.00;1.00;;;;;;5020598;28;20154;-66
2022/12/15 13:52:31;;;;;;;34.83;25.10;;;7.00;1.00;;;;;;5022791;28;20031;-66
2022/12/15 13:54:59;;;;;;;32.57;24.40;;;7.00;1.00;;;;;;5045185;28;20041;-66
2022/12/15 13:57:29;;;;;;;32.03;25.10;;;7.00;1.00;;;;;;5026910;28;20022;-67
2022/12/15 14:00:00;;;;;;;36.20;24.57;;;7.00;1.00;;;;;;5027997;28;20518;-67
2022/12/15 14:02:32;;;;;;;36.77;26.90;;;7.10;1.00;;;;;;5031779;28;20203;-67
2022/12/15 14:05:15;;;;;;;35.20;25.97;;;7.00;1.00;;;;;;5030840;28;20025;-66
2022/12/15 14:07:56;;;;;;;35.63;25.90;;;7.00;1.00;;;;;;5020126;28;20042;-67
2022/12/15 14:10:43;;;;;;;34.70;26.00;;;6.90;1.00;;;;;;5030964;28;20025;-68
2022/12/15 14:13:23;;;;;;;34.43;25.90;;;7.00;1.00;;;;;;5030265;28;20452;-67
2022/12/15 14:15:55;;;;;;;39.93;27.50;;;7.00;1.00;;;;;;5024169;28;20451;-67
2022/12/15 14:18:32;;;;;;;38.03;27.83;;;6.90;1.00;;;;;;5022085;28;20521;-67
2022/12/15 14:21:00;;;;;;;41.07;29.37;;;7.10;1.00;;;;;;5010724;28;20442;-67
2022/12/15 14:23:28;;;;;;;40.80;29.73;;;7.20;1.00;;;;;;5024986;28;20021;-67
2022/12/15 14:26:08;;;;;;;42.53;29.87;;;7.40;1.00;;;;;;5030981;28;20040;-66
2022/12/15 14:28:36;;;;;;;40.23;29.70;;;7.40;1.00;;;;;;5039590;28;20048;-67
2022/12/15 14:31:06;;;;;;;40.73;30.43;;;7.50;1.00;;;;;;5030773;28;20021;-67
2022/12/15 14:33:36;;;;;;;46.87;31.40;;;7.50;1.00;;;;;;5031263;28;20041;-66
2022/12/15 14:36:06;;;;;;;47.37;32.87;;;7.60;1.00;;;;;;5022081;28;20026;-66
2022/12/15 14:38:44;;;;;;;41.77;29.03;;;7.50;1.00;;;;;;5030688;28;20068;-66
2022/12/15 14:41:32;;;;;;;40.40;30.43;;;7.50;1.00;;;;;;5029023;28;20537;-66
2022/12/15 14:44:07;;;;;;;41.13;30.10;;;7.50;1.00;;;;;;5027372;28;20048;-66
2022/12/15 14:46:39;;;;;;;44.47;33.47;;;7.50;1.00;;;;;;5026869;28;20487;-66
2022/12/15 14:49:07;;;;;;;40.80;31.57;;;7.40;1.00;;;;;;5028387;28;20037;-66
2022/12/15 14:51:47;;;;;;;46.03;34.23;;;7.30;1.00;;;;;;5021295;28;20036;-66
2022/12/15 14:54:30;;;;;;;52.43;37.30;;;7.30;1.00;;;;;;5034115;28;20026;-66
2022/12/15 14:57:13;;;;;;;47.40;35.07;;;7.40;1.00;;;;;;5034455;28;20025;-66
2022/12/15 14:59:42;;;;;;;57.40;37.07;;;7.40;1.00;;;;;;5034286;28;20041;-66
2022/12/15 15:02:12;;;;;;;49.93;36.17;;;7.40;1.00;;;;;;5034466;28;20117;-66
2022/12/15 15:04:39;;;;;;;47.40;35.03;;;7.30;1.00;;;;;;5026368;28;20056;-66
2022/12/15 15:07:15;;;;;;;44.20;33.80;;;7.40;1.00;;;;;;5034269;28;20041;-66
2022/12/15 15:09:42;;;;;;;50.07;36.03;;;7.30;99.90;;;;;;5034002;28;20046;-66
2022/12/15 15:12:17;;;;;;;53.57;35.13;;;7.30;99.90;;;;;;5032733;28;20483;-65
2022/12/15 15:14:52;;;;;;;47.93;34.77;;;7.30;99.90;;;;;;5032740;28;20033;-66
2022/12/15 15:17:40;;;;;;;45.07;31.87;;;7.30;99.90;;;;;;5034427;28;20370;-66
2022/12/15 15:20:18;;;;;;;50.13;36.77;;;7.20;99.90;;;;;;5024797;28;20040;-66
2022/12/15 15:22:45;;;;;;;49.57;34.30;;;7.20;99.90;;;;;;5032994;28;20033;-66
2022/12/15 15:25:43;;;;;;;43.13;32.43;;;7.20;99.90;;;;;;5032344;28;20435;-66
2022/12/15 15:28:17;;;;;;;44.37;32.33;;;7.20;99.90;;;;;;5043308;28;20033;-65
2022/12/15 15:30:47;;;;;;;43.45;31.15;;;7.20;1.00;;;;;;5024401;28;20073;-65
2022/12/15 15:33:13;;;;;;;47.47;35.07;;;7.20;1.00;;;;;;5032754;28;20060;-66
2022/12/15 15:35:41;;;;;;;48.60;34.17;;;7.20;1.00;;;;;;5018213;28;20061;-66
2022/12/15 15:38:33;;;;;;;41.17;31.30;;;7.10;1.00;;;;;;5032878;28;20025;-65
2022/12/15 15:41:16;;;;;;;46.20;32.43;;;7.20;1.00;;;;;;5030240;28;20076;-66
2022/12/15 15:43:42;;;;;;;52.77;37.40;;;7.20;1.00;;;;;;5033862;28;20391;-65
2022/12/15 15:46:11;;;;;;;51.60;36.60;;;7.20;1.00;;;;;;5034083;28;20033;-65
2022/12/15 15:48:44;;;;;;;51.93;36.30;;;7.10;1.00;;;;;;5032177;28;20487;-65
2022/12/15 15:51:10;;;;;;;53.03;37.60;;;6.90;1.00;;;;;;5032978;28;20040;-66
2022/12/15 15:53:37;;;;;;;53.40;35.27;;;7.10;1.00;;;;;;5033372;28;20095;-66
2022/12/15 15:56:07;;;;;;;47.70;34.77;;;7.10;1.00;;;;;;5018297;28;20065;-66
2022/12/15 15:58:33;;;;;;;42.40;32.23;;;7.00;1.00;;;;;;5033349;28;20040;-65